Time;durP1;ratioP1;P1;durP2;ratioP2;P2;SDS_P1;SDS_P2;PMS_P1;PMS_P2;Temp;Humidity;BMP_temperature;BMP_pressure;BME280_temperature;BME280_humidity;BME280_pressure;Samples;Min_cycle;Max_cycle;Signal;HPM_P1;HPM_P2
2023/04/11 00:01:24;;;;;;;14.77;3.03;;;9.30;87.90;;;;;;5097495;28;20035;-81
2023/04/11 00:03:49;;;;;;;15.02;3.08;;;9.20;87.80;;;;;;5115109;28;20571;-80
2023/04/11 00:06:15;;;;;;;14.85;3.05;;;9.10;88.30;;;;;;5098296;28;20035;-81
2023/04/11 00:08:43;;;;;;;13.02;3.35;;;9.00;88.50;;;;;;5097847;28;20447;-81
2023/04/11 00:11:09;;;;;;;20.50;3.22;;;8.90;88.90;;;;;;5098381;28;20099;-79
2023/04/11 00:13:36;;;;;;;14.75;3.20;;;8.80;89.20;;;;;;5098417;28;20039;-81
2023/04/11 00:16:02;;;;;;;19.83;3.33;;;8.70;89.40;;;;;;5114060;28;20054;-82
2023/04/11 00:18:28;;;;;;;13.00;2.85;;;8.60;89.80;;;;;;5081376;28;20039;-80
2023/04/11 00:20:53;;;;;;;16.83;4.03;;;8.50;89.90;;;;;;5114960;28;20066;-79
2023/04/11 00:23:19;;;;;;;17.95;3.63;;;8.40;90.20;;;;;;5114779;28;20027;-80
2023/04/11 00:25:45;;;;;;;12.07;2.58;;;8.40;90.30;;;;;;5115180;28;20043;-81
2023/04/11 00:28:11;;;;;;;10.85;2.33;;;8.40;90.50;;;;;;5114927;28;20039;-81
2023/04/11 00:30:37;;;;;;;14.57;2.53;;;8.30;90.60;;;;;;5065272;27;20043;-81
2023/04/11 00:33:03;;;;;;;10.77;1.85;;;8.30;90.60;;;;;;5084496;27;20453;-81
2023/04/11 00:35:30;;;;;;;9.82;2.08;;;8.20;90.50;;;;;;5118956;27;20122;-82
2023/04/11 00:37:57;;;;;;;11.07;2.40;;;8.20;90.40;;;;;;5102186;27;20047;-81
2023/04/11 00:40:23;;;;;;;12.77;2.58;;;8.10;90.50;;;;;;5101896;27;20431;-80
2023/04/11 00:42:49;;;;;;;8.85;1.60;;;8.10;90.40;;;;;;5101729;27;20077;-80
2023/04/11 00:45:14;;;;;;;8.32;1.50;;;8.20;90.30;;;;;;5119048;27;20070;-80
2023/04/11 00:47:40;;;;;;;6.38;1.60;;;8.20;90.10;;;;;;5101009;27;20502;-81
2023/04/11 00:50:07;;;;;;;4.80;1.25;;;8.20;90.00;;;;;;5084943;27;20469;-79
2023/04/11 00:52:35;;;;;;;5.32;1.20;;;8.20;89.80;;;;;;5068162;27;20509;-81
2023/04/11 00:55:02;;;;;;;8.65;1.80;;;8.10;89.80;;;;;;5101722;27;20031;-79
2023/04/11 00:57:29;;;;;;;5.00;2.05;;;8.10;89.80;;;;;;5101598;27;20039;-79
2023/04/11 00:59:57;;;;;;;2.90;1.02;;;8.10;89.80;;;;;;5084823;27;20402;-81
2023/04/11 01:02:23;;;;;;;8.05;1.77;;;8.10;89.80;;;;;;5101322;27;20039;-80
2023/04/11 01:04:50;;;;;;;11.38;2.50;;;8.10;89.70;;;;;;5117514;27;20117;-81
2023/04/11 01:07:18;;;;;;;4.45;1.73;;;8.10;89.60;;;;;;5101534;27;20031;-81
2023/04/11 01:09:44;;;;;;;10.02;2.25;;;8.10;89.80;;;;;;5118122;27;20059;-80
2023/04/11 01:12:12;;;;;;;4.95;1.20;;;8.10;89.90;;;;;;5101433;27;20508;-81
2023/04/11 01:14:39;;;;;;;7.95;1.80;;;8.00;90.40;;;;;;5118199;27;20047;-80
2023/04/11 01:17:06;;;;;;;11.73;4.05;;;8.00;90.70;;;;;;5101454;27;20064;-81
2023/04/11 01:19:33;;;;;;;9.70;2.10;;;8.10;90.50;;;;;;5117965;27;20047;-80
2023/04/11 01:22:00;;;;;;;7.03;1.67;;;8.10;90.90;;;;;;5117421;27;20031;-79
2023/04/11 01:24:26;;;;;;;7.85;1.75;;;8.10;90.70;;;;;;5101228;27;20103;-81
2023/04/11 01:26:53;;;;;;;5.80;0.70;;;8.10;90.80;;;;;;5101680;27;20050;-83
2023/04/11 01:29:19;;;;;;;2.72;0.80;;;8.20;90.70;;;;;;5118082;27;20081;-83
2023/04/11 01:31:45;;;;;;;4.25;1.05;;;8.20;90.50;;;;;;5100933;27;20070;-82
2023/04/11 01:34:13;;;;;;;7.00;1.15;;;8.20;90.40;;;;;;5084017;27;20131;-81
2023/04/11 01:36:40;;;;;;;5.82;1.15;;;8.20;90.50;;;;;;5084134;27;20043;-81
2023/04/11 01:39:06;;;;;;;5.85;1.30;;;8.20;90.50;;;;;;5099445;27;20048;-81
2023/04/11 01:41:34;;;;;;;6.35;1.27;;;8.10;91.00;;;;;;5118002;27;20042;-80
2023/04/11 01:44:01;;;;;;;4.18;1.25;;;8.10;90.90;;;;;;5100051;27;20096;-81
2023/04/11 01:46:27;;;;;;;4.80;0.75;;;8.10;90.80;;;;;;5117933;27;20066;-79
2023/04/11 01:48:59;;;;;;;9.15;1.20;;;8.20;90.90;;;;;;5100564;27;20074;-80
2023/04/11 01:51:24;;;;;;;4.95;1.60;;;8.20;90.80;;;;;;5117504;27;20153;-80
2023/04/11 01:53:50;;;;;;;4.60;1.38;;;8.20;91.10;;;;;;5100543;27;20118;-81
2023/04/11 01:56:16;;;;;;;4.35;1.08;;;8.20;90.70;;;;;;5100423;27;20469;-81
2023/04/11 01:58:41;;;;;;;4.70;0.90;;;8.20;90.90;;;;;;5083011;27;20050;-79
2023/04/11 02:01:07;;;;;;;5.30;1.30;;;8.20;90.90;;;;;;5100130;27;20075;-82
2023/04/11 02:03:33;;;;;;;5.38;1.13;;;8.20;90.90;;;;;;5100565;27;20035;-81
2023/04/11 02:05:58;;;;;;;5.15;1.30;;;8.30;90.90;;;;;;5100345;27;20039;-82
2023/04/11 02:08:24;;;;;;;4.10;1.10;;;8.20;91.00;;;;;;5082949;27;20154;-82
2023/04/11 02:10:50;;;;;;;8.77;1.27;;;8.20;91.20;;;;;;5117363;27;20050;-81
2023/04/11 02:13:16;;;;;;;7.00;1.33;;;8.20;91.40;;;;;;5100247;27;20047;-80
2023/04/11 02:15:41;;;;;;;4.47;1.10;;;8.10;91.50;;;;;;5098940;27;20130;-81
2023/04/11 02:18:08;;;;;;;12.07;1.45;;;8.10;91.40;;;;;;5100156;27;20130;-81
2023/04/11 02:20:39;;;;;;;8.75;1.70;;;8.10;91.60;;;;;;5100090;27;20109;-79
2023/04/11 02:23:05;;;;;;;5.63;1.67;;;8.10;91.90;;;;;;5116905;27;20082;-81
2023/04/11 02:25:31;;;;;;;7.25;1.60;;;8.10;92.10;;;;;;5116866;27;20092;-81
2023/04/11 02:27:56;;;;;;;10.82;1.98;;;8.20;92.00;;;;;;5083217;27;20047;-81
2023/04/11 02:30:22;;;;;;;9.20;2.78;;;8.10;92.00;;;;;;5116442;27;20474;-81
2023/04/11 02:32:48;;;;;;;6.10;2.30;;;8.10;92.30;;;;;;5082575;27;20174;-81
2023/04/11 02:35:15;;;;;;;9.63;1.85;;;8.10;92.30;;;;;;5099793;27;20654;-82
2023/04/11 02:37:41;;;;;;;6.28;2.08;;;8.20;92.30;;;;;;5099837;27;20043;-80
2023/04/11 02:40:08;;;;;;;9.43;1.63;;;8.20;92.40;;;;;;5099652;27;20035;-79
2023/04/11 02:42:34;;;;;;;7.22;1.98;;;8.30;92.30;;;;;;5099843;27;20470;-81
2023/04/11 02:45:00;;;;;;;10.60;2.30;;;8.30;92.20;;;;;;5116572;27;20039;-81
2023/04/11 02:47:26;;;;;;;9.65;1.70;;;8.30;91.90;;;;;;5115716;27;20374;-80
2023/04/11 02:49:52;;;;;;;8.07;1.58;;;8.30;92.10;;;;;;5099703;27;20045;-79
2023/04/11 02:52:18;;;;;;;10.50;2.65;;;8.40;91.50;;;;;;5099646;27;20124;-80
2023/04/11 02:54:44;;;;;;;8.55;2.65;;;8.40;91.00;;;;;;5116306;27;20498;-79
2023/04/11 02:57:11;;;;;;;5.85;1.60;;;8.40;90.80;;;;;;5099565;27;20046;-82
2023/04/11 02:59:37;;;;;;;6.85;1.90;;;8.40;90.70;;;;;;5099221;27;20039;-81
2023/04/11 03:02:03;;;;;;;8.00;1.95;;;8.40;90.50;;;;;;5099690;27;20503;-79
2023/04/11 03:04:28;;;;;;;10.00;1.83;;;8.40;90.50;;;;;;5115712;27;20046;-82
2023/04/11 03:06:54;;;;;;;6.47;1.67;;;8.40;90.40;;;;;;5116492;27;20108;-81
2023/04/11 03:09:22;;;;;;;5.22;1.63;;;8.50;90.40;;;;;;5115898;27;20560;-80
2023/04/11 03:11:48;;;;;;;10.43;2.58;;;8.50;89.80;;;;;;5098857;27;20103;-80
2023/04/11 03:14:14;;;;;;;11.95;2.05;;;8.50;89.60;;;;;;5115963;27;20051;-81
2023/04/11 03:16:40;;;;;;;8.35;2.03;;;8.50;89.70;;;;;;5116179;27;20425;-80
2023/04/11 03:19:05;;;;;;;8.50;1.92;;;8.50;89.50;;;;;;5115969;27;20126;-80
2023/04/11 03:21:31;;;;;;;4.35;1.80;;;8.50;89.40;;;;;;5113390;27;20046;-80
2023/04/11 03:23:57;;;;;;;7.47;1.90;;;8.50;89.60;;;;;;5115915;27;20035;-79
2023/04/11 03:26:26;;;;;;;8.75;1.98;;;8.50;89.40;;;;;;5099127;27;20049;-80
2023/04/11 03:28:53;;;;;;;8.75;2.10;;;8.50;89.40;;;;;;5115720;27;20043;-79
2023/04/11 03:31:19;;;;;;;10.10;2.55;;;8.40;89.30;;;;;;5115696;27;20043;-79
2023/04/11 03:33:47;;;;;;;14.25;3.92;;;8.40;89.40;;;;;;5082194;27;20399;-81
2023/04/11 03:36:13;;;;;;;5.55;1.88;;;8.50;89.00;;;;;;5083057;27;20043;-80
2023/04/11 03:38:39;;;;;;;10.15;2.22;;;8.40;89.30;;;;;;5077882;28;20035;-81
2023/04/11 03:41:05;;;;;;;6.43;1.38;;;8.50;89.00;;;;;;5095012;28;20104;-81
2023/04/11 03:43:31;;;;;;;13.18;2.78;;;8.50;88.90;;;;;;5095321;28;20028;-81
2023/04/11 03:45:57;;;;;;;10.50;2.10;;;8.40;88.80;;;;;;5078344;28;20415;-78
2023/04/11 03:48:25;;;;;;;11.52;2.60;;;8.40;89.10;;;;;;5078092;28;20031;-79
2023/04/11 03:50:51;;;;;;;12.32;2.65;;;8.40;89.10;;;;;;5078622;28;20139;-80
2023/04/11 03:53:17;;;;;;;7.97;2.00;;;8.50;89.00;;;;;;5078210;28;20039;-79
2023/04/11 03:55:43;;;;;;;12.38;2.70;;;8.40;89.30;;;;;;5089291;27;20118;-79
2023/04/11 03:58:10;;;;;;;10.85;2.90;;;8.50;89.20;;;;;;5098466;28;20130;-80
2023/04/11 04:00:35;;;;;;;13.25;2.40;;;8.50;89.00;;;;;;5098409;28;20507;-80
2023/04/11 04:03:01;;;;;;;7.40;2.60;;;8.40;88.70;;;;;;5115187;28;20116;-80
2023/04/11 04:05:27;;;;;;;5.63;2.38;;;8.40;88.70;;;;;;5116898;27;20111;-79
2023/04/11 04:07:53;;;;;;;8.10;2.45;;;8.40;88.80;;;;;;5105552;27;20039;-80
2023/04/11 04:10:18;;;;;;;8.77;2.38;;;8.40;88.70;;;;;;5104051;27;20051;-80
2023/04/11 04:12:44;;;;;;;8.70;2.40;;;8.40;88.70;;;;;;5088159;27;20039;-80
2023/04/11 04:15:13;;;;;;;10.30;2.97;;;8.40;88.60;;;;;;5071442;27;20039;-78
2023/04/11 04:17:39;;;;;;;9.10;2.10;;;8.20;88.80;;;;;;5105251;27;20031;-79
2023/04/11 04:20:09;;;;;;;10.68;2.47;;;8.20;88.70;;;;;;5105049;27;20115;-78
2023/04/11 04:22:35;;;;;;;10.52;2.20;;;8.10;88.90;;;;;;5121900;27;20039;-80
2023/04/11 04:25:01;;;;;;;5.38;1.65;;;8.20;89.00;;;;;;5122425;27;20494;-79
2023/04/11 04:27:27;;;;;;;10.38;2.45;;;8.10;89.00;;;;;;5088146;27;20100;-78
2023/04/11 04:29:55;;;;;;;19.25;2.38;;;8.10;89.00;;;;;;5103991;27;20053;-80
2023/04/11 04:32:22;;;;;;;7.93;2.33;;;8.20;88.80;;;;;;5105153;27;20371;-80
2023/04/11 04:34:55;;;;;;;8.65;3.13;;;8.10;89.00;;;;;;5105118;27;20039;-78
2023/04/11 04:37:24;;;;;;;8.77;2.20;;;8.10;89.10;;;;;;5122106;27;20046;-80
2023/04/11 04:39:53;;;;;;;9.90;2.85;;;8.10;89.10;;;;;;5121851;27;20399;-80
2023/04/11 04:42:23;;;;;;;13.13;3.17;;;8.10;89.10;;;;;;5122666;27;20050;-80
2023/04/11 04:44:50;;;;;;;11.77;2.90;;;8.20;88.80;;;;;;5121440;27;20035;-79
2023/04/11 04:47:16;;;;;;;11.55;2.78;;;8.10;88.80;;;;;;5105033;27;20082;-80
2023/04/11 04:49:43;;;;;;;10.18;2.33;;;8.10;88.90;;;;;;5121515;27;20046;-81
2023/04/11 04:52:09;;;;;;;9.80;2.20;;;8.20;89.00;;;;;;5104545;27;20038;-79
2023/04/11 04:54:35;;;;;;;13.80;2.08;;;8.20;88.80;;;;;;5121855;27;20043;-79
2023/04/11 04:57:00;;;;;;;11.20;3.38;;;8.20;89.10;;;;;;5088057;27;20050;-79
2023/04/11 04:59:26;;;;;;;14.18;2.65;;;8.20;88.90;;;;;;5105024;27;20034;-81
2023/04/11 05:01:53;;;;;;;10.82;2.70;;;8.30;88.70;;;;;;5086940;27;20118;-79
2023/04/11 05:04:19;;;;;;;11.90;2.67;;;8.20;88.80;;;;;;5121772;27;20103;-78
2023/04/11 05:06:45;;;;;;;10.00;2.42;;;8.30;89.00;;;;;;5121462;27;20042;-79
2023/04/11 05:09:13;;;;;;;16.05;2.40;;;8.30;88.70;;;;;;5087625;27;20055;-81
2023/04/11 05:11:38;;;;;;;12.75;3.17;;;8.20;88.70;;;;;;5071567;27;20106;-81
2023/04/11 05:14:04;;;;;;;9.50;2.30;;;8.20;88.60;;;;;;5122203;27;20067;-80
2023/04/11 05:16:30;;;;;;;8.13;2.35;;;8.30;88.60;;;;;;5104417;27;20483;-79
2023/04/11 05:18:56;;;;;;;16.63;4.45;;;8.20;88.20;;;;;;5080724;27;20046;-81
2023/04/11 05:21:22;;;;;;;12.27;3.30;;;8.20;88.60;;;;;;5097796;28;20044;-82
2023/04/11 05:23:47;;;;;;;8.35;2.90;;;8.20;88.70;;;;;;5080910;28;20050;-81
2023/04/11 05:26:13;;;;;;;7.50;3.05;;;8.20;88.60;;;;;;5097943;28;20035;-78
2023/04/11 05:28:40;;;;;;;13.07;3.88;;;8.30;88.30;;;;;;5097490;28;20059;-79
2023/04/11 05:31:07;;;;;;;10.35;3.22;;;8.30;88.40;;;;;;5097584;28;20035;-82
2023/04/11 05:33:33;;;;;;;11.15;2.85;;;8.20;88.30;;;;;;5081130;28;20077;-82
2023/04/11 05:35:59;;;;;;;12.85;2.67;;;8.30;88.10;;;;;;5082830;27;20071;-79
2023/04/11 05:38:25;;;;;;;10.35;3.85;;;8.30;87.80;;;;;;5117792;27;20094;-79
2023/04/11 05:40:51;;;;;;;8.20;2.53;;;8.30;87.70;;;;;;5100898;27;20046;-80
2023/04/11 05:43:17;;;;;;;11.52;2.17;;;8.30;87.70;;;;;;5118103;27;20054;-79
2023/04/11 05:45:46;;;;;;;8.77;2.00;;;8.30;87.70;;;;;;5100728;27;20482;-79
2023/04/11 05:48:18;;;;;;;8.13;2.15;;;8.40;87.50;;;;;;5101139;27;20039;-79
2023/04/11 05:50:44;;;;;;;10.18;2.20;;;8.40;87.30;;;;;;5100516;27;20035;-80
2023/04/11 05:53:10;;;;;;;10.77;2.75;;;8.50;87.10;;;;;;5117000;27;20392;-81
2023/04/11 05:55:36;;;;;;;11.25;3.42;;;8.50;86.70;;;;;;5117562;27;20038;-79
2023/04/11 05:58:03;;;;;;;11.43;2.90;;;8.50;86.90;;;;;;5100601;27;20108;-79
2023/04/11 06:00:31;;;;;;;10.50;2.65;;;8.50;86.80;;;;;;5083639;27;20046;-79
2023/04/11 06:02:58;;;;;;;6.78;2.50;;;8.40;86.50;;;;;;5100610;27;20065;-80
2023/04/11 06:05:25;;;;;;;10.20;2.92;;;8.50;86.10;;;;;;5100554;27;20035;-78
2023/04/11 06:07:51;;;;;;;8.38;2.63;;;8.50;85.70;;;;;;5117451;27;20490;-79
2023/04/11 06:10:17;;;;;;;9.20;2.53;;;8.50;85.80;;;;;;5099121;27;20483;-78
2023/04/11 06:12:43;;;;;;;12.27;2.90;;;8.50;85.80;;;;;;5117164;27;20057;-79
2023/04/11 06:15:10;;;;;;;8.27;2.47;;;8.50;85.50;;;;;;5100405;27;20107;-81
2023/04/11 06:17:37;;;;;;;14.98;3.95;;;8.50;85.80;;;;;;5117374;27;20065;-79
2023/04/11 06:20:04;;;;;;;11.48;2.55;;;8.50;85.50;;;;;;5100092;27;20070;-81
2023/04/11 06:22:30;;;;;;;14.05;3.45;;;8.50;85.80;;;;;;5100431;27;20043;-80
2023/04/11 06:24:56;;;;;;;9.93;2.92;;;8.50;86.50;;;;;;5100384;27;20483;-79
2023/04/11 06:27:22;;;;;;;12.40;2.65;;;8.40;87.10;;;;;;5116092;27;20047;-80
2023/04/11 06:29:47;;;;;;;13.90;2.00;;;8.30;87.40;;;;;;5082663;27;20075;-80
2023/04/11 06:32:13;;;;;;;5.10;1.60;;;8.40;86.70;;;;;;5099743;27;20039;-81
2023/04/11 06:34:39;;;;;;;10.70;2.50;;;8.30;86.40;;;;;;5099843;27;20043;-78
2023/04/11 06:37:06;;;;;;;7.57;2.10;;;8.30;86.20;;;;;;5099704;27;20043;-81
2023/04/11 06:39:32;;;;;;;8.15;1.98;;;8.30;86.20;;;;;;5082751;27;20085;-79
2023/04/11 06:41:58;;;;;;;8.57;2.25;;;8.30;86.50;;;;;;5083004;27;20035;-81
2023/04/11 06:44:23;;;;;;;12.95;3.72;;;8.20;86.70;;;;;;5115520;27;20039;-78
2023/04/11 06:46:49;;;;;;;9.50;2.58;;;8.20;86.60;;;;;;5116482;27;20137;-80
2023/04/11 06:49:17;;;;;;;13.13;2.90;;;8.30;86.40;;;;;;5099387;27;20176;-81
2023/04/11 06:51:48;;;;;;;12.00;2.85;;;8.30;86.40;;;;;;5066816;27;20038;-78
2023/04/11 06:54:15;;;;;;;13.68;3.00;;;8.30;86.20;;;;;;5083617;27;20038;-78
2023/04/11 06:56:41;;;;;;;10.50;2.75;;;8.40;86.20;;;;;;5116569;27;20369;-80
2023/04/11 06:59:06;;;;;;;15.25;3.05;;;8.40;85.90;;;;;;5115965;27;20053;-79
2023/04/11 07:01:36;;;;;;;16.88;3.47;;;8.30;85.90;;;;;;5098306;27;20046;-79
2023/04/11 07:04:06;;;;;;;11.13;3.05;;;8.40;85.90;;;;;;5116217;27;20074;-80
2023/04/11 07:06:34;;;;;;;13.30;2.67;;;8.40;86.00;;;;;;5116287;27;20214;-79
2023/04/11 07:09:00;;;;;;;12.50;2.67;;;8.40;86.10;;;;;;5107760;27;20494;-81
2023/04/11 07:11:26;;;;;;;10.15;2.72;;;8.40;85.80;;;;;;5108519;27;20151;-79
2023/04/11 07:13:54;;;;;;;10.05;2.72;;;8.40;85.80;;;;;;5092342;27;20399;-82
2023/04/11 07:16:20;;;;;;;12.10;3.00;;;8.50;85.60;;;;;;5108615;27;20057;-77
2023/04/11 07:18:45;;;;;;;11.25;2.35;;;8.50;84.90;;;;;;5107289;27;20043;-79
2023/04/11 07:21:12;;;;;;;7.93;2.38;;;8.50;85.00;;;;;;5092272;27;20057;-80
2023/04/11 07:23:39;;;;;;;15.43;3.03;;;8.60;84.70;;;;;;5108604;27;20495;-78
2023/04/11 07:26:07;;;;;;;11.32;2.30;;;8.60;84.70;;;;;;5108675;27;20043;-80
2023/04/11 07:28:36;;;;;;;11.65;3.38;;;8.70;84.10;;;;;;5107319;27;20123;-79
2023/04/11 07:31:03;;;;;;;7.80;2.25;;;8.80;83.00;;;;;;5058492;27;20047;-81
2023/04/11 07:33:28;;;;;;;8.88;2.17;;;8.80;82.80;;;;;;5091047;27;20035;-80
2023/04/11 07:35:54;;;;;;;6.28;1.63;;;8.70;82.80;;;;;;5093143;27;20043;-79
2023/04/11 07:38:28;;;;;;;8.05;2.40;;;8.80;82.70;;;;;;5108600;27;20039;-83
2023/04/11 07:40:58;;;;;;;6.65;1.98;;;8.80;83.20;;;;;;5076358;27;20050;-78
2023/04/11 07:43:25;;;;;;;11.02;2.05;;;8.80;82.60;;;;;;5092190;27;20035;-81
2023/04/11 07:45:52;;;;;;;7.45;1.75;;;8.70;83.10;;;;;;5075277;27;20533;-79
2023/04/11 07:48:20;;;;;;;8.77;1.75;;;8.80;82.50;;;;;;5090474;27;20031;-79
2023/04/11 07:50:45;;;;;;;9.52;2.75;;;8.70;82.00;;;;;;5108180;27;20051;-81
2023/04/11 07:53:11;;;;;;;7.53;2.50;;;8.70;82.10;;;;;;5075273;27;20166;-82
2023/04/11 07:55:37;;;;;;;11.80;2.63;;;8.80;82.00;;;;;;5074989;27;20085;-78
2023/04/11 07:58:03;;;;;;;12.23;3.20;;;8.90;81.20;;;;;;5107390;27;20130;-81
2023/04/11 08:00:33;;;;;;;12.02;2.65;;;9.00;80.80;;;;;;5074861;28;20035;-82
2023/04/11 08:03:06;;;;;;;7.68;2.20;;;9.00;80.20;;;;;;5090725;28;20031;-81
2023/04/11 08:05:33;;;;;;;6.95;2.10;;;9.00;80.60;;;;;;5090805;28;20043;-80
2023/04/11 08:07:59;;;;;;;8.20;2.22;;;9.00;80.10;;;;;;5090105;28;20058;-80
2023/04/11 08:10:25;;;;;;;7.75;2.40;;;9.10;80.40;;;;;;5090746;28;20134;-80
2023/04/11 08:12:51;;;;;;;7.68;2.30;;;9.20;80.20;;;;;;5096960;28;20623;-79
2023/04/11 08:15:17;;;;;;;9.30;2.28;;;9.30;80.70;;;;;;5114978;28;20410;-82
2023/04/11 08:17:44;;;;;;;13.00;2.78;;;9.20;80.40;;;;;;5098306;28;20398;-81
2023/04/11 08:20:10;;;;;;;6.70;1.90;;;9.10;80.30;;;;;;5114254;28;20039;-80
2023/04/11 08:22:43;;;;;;;10.43;2.83;;;9.30;80.30;;;;;;5080417;28;20495;-81
2023/04/11 08:25:12;;;;;;;14.95;2.33;;;9.30;80.70;;;;;;5098310;28;20039;-80
2023/04/11 08:27:39;;;;;;;8.02;2.00;;;9.30;80.00;;;;;;5115208;28;20039;-82
2023/04/11 08:30:07;;;;;;;6.25;2.25;;;9.30;79.00;;;;;;5098017;28;20479;-81
2023/04/11 08:32:34;;;;;;;12.90;3.13;;;9.40;79.40;;;;;;5115066;28;20045;-82
2023/04/11 08:35:00;;;;;;;8.88;1.88;;;9.50;80.20;;;;;;5098139;28;20063;-81
2023/04/11 08:37:26;;;;;;;9.98;2.83;;;9.50;78.10;;;;;;5097780;28;20054;-82
2023/04/11 08:39:52;;;;;;;7.95;2.38;;;9.50;78.30;;;;;;5113872;28;20039;-81
2023/04/11 08:42:23;;;;;;;10.05;2.55;;;9.40;79.00;;;;;;5115033;28;20098;-81
2023/04/11 08:44:54;;;;;;;12.15;2.72;;;9.40;78.60;;;;;;5098062;28;20368;-81
2023/04/11 08:47:21;;;;;;;8.80;2.15;;;9.30;78.00;;;;;;5098122;28;20142;-82
2023/04/11 08:49:47;;;;;;;9.75;2.28;;;9.20;78.90;;;;;;5097792;28;20043;-82
2023/04/11 08:52:13;;;;;;;10.13;2.35;;;9.20;79.80;;;;;;5099256;27;20041;-82
2023/04/11 08:54:39;;;;;;;11.15;2.28;;;9.30;78.90;;;;;;5100952;27;20035;-82
2023/04/11 08:57:04;;;;;;;10.90;2.20;;;9.20;79.30;;;;;;5118660;27;20049;-81
2023/04/11 08:59:32;;;;;;;13.38;2.30;;;9.20;79.20;;;;;;5084539;27;20050;-81
2023/04/11 09:02:08;;;;;;;14.68;2.63;;;9.30;79.50;;;;;;5118658;27;20031;-82
2023/04/11 09:04:42;;;;;;;12.48;2.92;;;9.40;79.20;;;;;;5118291;27;20043;-82
2023/04/11 09:07:08;;;;;;;5.90;2.00;;;9.40;78.20;;;;;;5118272;27;20487;-82
2023/04/11 09:09:35;;;;;;;10.00;2.22;;;9.30;78.70;;;;;;5099942;27;20063;-81
2023/04/11 09:12:02;;;;;;;9.15;1.92;;;9.40;77.70;;;;;;5118185;27;20043;-82
2023/04/11 09:14:28;;;;;;;8.68;2.58;;;9.40;78.40;;;;;;5101180;27;20566;-82
2023/04/11 09:16:58;;;;;;;12.95;2.78;;;9.30;79.90;;;;;;5111984;27;20120;-81
2023/04/11 09:19:25;;;;;;;12.27;2.47;;;9.20;81.10;;;;;;5080454;28;20035;-81
2023/04/11 09:21:52;;;;;;;13.43;2.10;;;9.10;82.20;;;;;;5064435;28;20036;-82
2023/04/11 09:24:18;;;;;;;9.65;2.47;;;9.10;82.90;;;;;;5064635;28;20031;-82
2023/04/11 09:26:44;;;;;;;12.77;3.25;;;9.10;82.30;;;;;;5081558;28;20043;-82
2023/04/11 09:29:10;;;;;;;10.38;2.17;;;9.20;81.90;;;;;;5082744;27;20038;-81
2023/04/11 09:31:44;;;;;;;5.47;1.65;;;9.30;81.30;;;;;;5081803;27;20122;-81
2023/04/11 09:34:11;;;;;;;8.27;1.90;;;9.00;79.50;;;;;;5115123;27;20127;-81
2023/04/11 09:36:38;;;;;;;10.90;2.05;;;8.80;80.00;;;;;;5095620;27;20039;-81
2023/04/11 09:39:19;;;;;;;12.18;2.45;;;8.70;81.00;;;;;;5097842;27;20046;-80
2023/04/11 09:41:45;;;;;;;9.00;2.88;;;8.90;81.10;;;;;;5115786;27;20047;-82
2023/04/11 09:44:11;;;;;;;4.18;1.67;;;8.70;81.30;;;;;;5099127;27;20157;-81
2023/04/11 09:46:55;;;;;;;9.52;2.28;;;8.50;81.90;;;;;;5115429;27;20043;-80
2023/04/11 09:49:22;;;;;;;4.38;1.00;;;8.20;83.10;;;;;;5112109;27;20043;-81
2023/04/11 09:51:49;;;;;;;3.58;0.98;;;8.00;83.60;;;;;;5096902;27;20043;-80
2023/04/11 09:54:15;;;;;;;4.90;1.77;;;7.60;83.80;;;;;;5089789;27;20114;-80
2023/04/11 09:56:41;;;;;;;8.07;1.77;;;7.30;84.40;;;;;;5096834;27;20125;-82
2023/04/11 09:59:07;;;;;;;7.13;1.80;;;7.20;85.30;;;;;;5116070;27;20157;-83
2023/04/11 10:01:34;;;;;;;4.40;1.25;;;7.10;85.60;;;;;;5099222;27;20035;-80
2023/04/11 10:04:00;;;;;;;8.60;1.52;;;7.00;86.10;;;;;;5065918;27;20115;-79
2023/04/11 10:06:45;;;;;;;4.53;0.90;;;7.10;86.60;;;;;;5084555;27;20073;-80
2023/04/11 10:09:12;;;;;;;6.85;1.98;;;7.10;87.10;;;;;;5099928;27;20047;-80
2023/04/11 10:11:44;;;;;;;12.30;1.95;;;7.20;87.40;;;;;;5101653;27;20039;-80
2023/04/11 10:14:35;;;;;;;9.75;2.47;;;7.30;87.70;;;;;;5118215;27;20039;-80
2023/04/11 10:17:14;;;;;;;10.63;2.38;;;7.40;88.10;;;;;;5101005;27;20115;-79
2023/04/11 10:19:40;;;;;;;8.10;1.83;;;7.50;87.70;;;;;;5101479;27;20039;-77
2023/04/11 10:22:05;;;;;;;3.60;1.13;;;7.40;86.50;;;;;;5100984;27;20534;-80
2023/04/11 10:24:31;;;;;;;6.00;2.10;;;7.50;85.70;;;;;;5114053;28;20046;-80
2023/04/11 10:26:59;;;;;;;9.57;1.73;;;7.50;86.30;;;;;;5064171;28;20130;-81
2023/04/11 10:29:46;;;;;;;6.28;1.60;;;7.50;87.00;;;;;;5080223;28;20064;-81
2023/04/11 10:32:16;;;;;;;8.20;2.80;;;7.50;87.80;;;;;;5097179;28;20049;-80
2023/04/11 10:34:53;;;;;;;8.00;2.13;;;7.70;87.70;;;;;;5097279;28;20062;-81
2023/04/11 10:37:33;;;;;;;8.32;2.20;;;7.70;87.60;;;;;;5096979;28;20061;-80
2023/04/11 10:40:04;;;;;;;8.80;2.10;;;7.80;87.20;;;;;;5094115;27;20511;-81
2023/04/11 10:42:32;;;;;;;12.50;3.17;;;7.90;87.10;;;;;;5100497;27;20039;-81
2023/04/11 10:45:29;;;;;;;11.55;2.75;;;8.10;87.80;;;;;;5100290;27;20035;-83
2023/04/11 10:47:55;;;;;;;11.63;2.63;;;8.50;88.60;;;;;;5117471;27;20501;-81
2023/04/11 10:50:30;;;;;;;7.63;2.10;;;8.50;87.10;;;;;;5117341;27;20043;-81
2023/04/11 10:53:00;;;;;;;11.85;2.00;;;8.40;87.30;;;;;;5099888;27;20035;-81
2023/04/11 10:55:27;;;;;;;9.85;1.52;;;8.30;86.70;;;;;;5117479;27;20439;-81
2023/04/11 10:58:10;;;;;;;6.00;2.65;;;8.00;85.70;;;;;;5116549;27;20135;-81
2023/04/11 11:00:45;;;;;;;9.73;1.98;;;7.90;85.90;;;;;;5100040;27;20039;-79
2023/04/11 11:03:15;;;;;;;24.48;9.48;;;7.80;86.30;;;;;;5100365;27;20529;-80
2023/04/11 11:05:41;;;;;;;6.78;2.95;;;7.80;86.90;;;;;;5114583;27;20049;-82
2023/04/11 11:08:07;;;;;;;14.63;3.10;;;7.90;86.30;;;;;;5112742;27;20042;-80
2023/04/11 11:10:40;;;;;;;10.32;2.60;;;8.00;86.20;;;;;;5114041;27;20055;-79
2023/04/11 11:13:06;;;;;;;15.38;3.53;;;8.00;86.80;;;;;;5112207;27;20356;-80
2023/04/11 11:15:40;;;;;;;15.80;3.67;;;8.10;86.70;;;;;;5112932;27;20047;-82
2023/04/11 11:18:08;;;;;;;10.80;3.17;;;8.40;87.30;;;;;;5095145;27;20553;-82
2023/04/11 11:20:35;;;;;;;14.77;3.58;;;8.60;87.70;;;;;;5116618;27;20042;-82
2023/04/11 11:23:03;;;;;;;10.93;2.97;;;8.70;86.30;;;;;;5099520;27;20035;-80
2023/04/11 11:25:29;;;;;;;21.45;3.28;;;8.90;84.50;;;;;;5116467;27;20049;-81
2023/04/11 11:28:03;;;;;;;6.65;1.83;;;9.10;84.00;;;;;;5116632;27;20095;-79
2023/04/11 11:30:29;;;;;;;15.52;3.97;;;9.20;81.60;;;;;;5107161;28;20035;-80
2023/04/11 11:32:55;;;;;;;13.85;2.42;;;9.30;82.50;;;;;;5100886;27;20039;-80
2023/04/11 11:35:22;;;;;;;11.85;2.75;;;9.20;81.20;;;;;;5099580;27;20388;-80
2023/04/11 11:37:52;;;;;;;14.25;2.92;;;9.10;80.40;;;;;;5116692;27;20038;-82
2023/04/11 11:40:21;;;;;;;10.77;3.25;;;9.20;81.20;;;;;;5082578;27;20467;-81
2023/04/11 11:42:50;;;;;;;12.43;2.80;;;9.30;80.80;;;;;;5116388;27;20035;-80
2023/04/11 11:45:20;;;;;;;11.50;2.38;;;9.40;80.10;;;;;;5116272;27;20035;-82
2023/04/11 11:47:48;;;;;;;15.77;3.83;;;9.30;80.70;;;;;;5116512;27;20078;-81
2023/04/11 11:50:32;;;;;;;12.82;3.00;;;9.20;81.10;;;;;;5099252;28;20084;-81
2023/04/11 11:53:14;;;;;;;9.93;2.65;;;9.30;81.20;;;;;;5098899;27;20039;-82
2023/04/11 11:55:42;;;;;;;12.80;2.63;;;9.40;79.80;;;;;;5115975;28;20050;-81
2023/04/11 11:58:08;;;;;;;8.20;2.47;;;9.40;79.10;;;;;;5099286;27;20047;-83
2023/04/11 12:00:46;;;;;;;13.23;3.25;;;9.40;79.20;;;;;;5098914;28;20491;-80
2023/04/11 12:03:16;;;;;;;11.63;4.03;;;9.40;79.50;;;;;;5099292;28;20043;-82
2023/04/11 12:05:43;;;;;;;8.52;2.30;;;9.40;79.70;;;;;;5099072;28;20035;-81
2023/04/11 12:08:09;;;;;;;16.48;3.22;;;9.50;79.20;;;;;;5081562;27;20032;-80
2023/04/11 12:10:55;;;;;;;11.52;3.20;;;9.70;78.30;;;;;;5116179;28;20086;-81
2023/04/11 12:13:24;;;;;;;13.73;3.03;;;9.90;77.50;;;;;;5098832;28;20082;-82
2023/04/11 12:15:53;;;;;;;13.95;3.22;;;10.10;76.70;;;;;;5116175;28;20380;-81
2023/04/11 12:18:23;;;;;;;13.45;2.80;;;10.20;76.70;;;;;;5115833;27;20073;-82
2023/04/11 12:20:50;;;;;;;11.95;3.35;;;10.40;76.10;;;;;;5082347;28;20035;-81
2023/04/11 12:23:16;;;;;;;3.50;1.83;;;10.50;75.80;;;;;;5099005;28;20413;-81
2023/04/11 12:25:42;;;;;;;10.15;2.50;;;10.50;74.40;;;;;;5080102;28;20052;-81
2023/04/11 12:28:08;;;;;;;16.67;4.35;;;10.30;74.80;;;;;;5081534;28;20043;-83
2023/04/11 12:30:34;;;;;;;11.45;2.40;;;10.30;75.60;;;;;;5099417;28;20046;-82
2023/04/11 12:33:00;;;;;;;14.88;3.22;;;10.40;75.40;;;;;;5082641;28;20031;-81
2023/04/11 12:35:26;;;;;;;15.48;2.95;;;10.60;73.80;;;;;;5081661;27;20039;-81
2023/04/11 12:37:51;;;;;;;17.05;3.58;;;10.70;73.90;;;;;;5154242;27;20057;-80
2023/04/11 12:40:17;;;;;;;9.93;2.70;;;10.90;73.30;;;;;;5101585;27;20039;-82
2023/04/11 12:42:46;;;;;;;8.27;2.20;;;11.10;73.50;;;;;;5119568;27;20118;-82
2023/04/11 12:45:12;;;;;;;7.20;2.30;;;11.20;71.90;;;;;;5102425;27;20127;-82
2023/04/11 12:47:38;;;;;;;15.88;3.22;;;11.20;71.80;;;;;;5113247;27;20038;-82
2023/04/11 12:50:05;;;;;;;8.63;2.33;;;11.10;69.50;;;;;;5093879;27;20046;-81
2023/04/11 12:52:32;;;;;;;7.38;2.50;;;10.90;68.80;;;;;;5083279;27;20142;-83